Time;durP1;ratioP1;P1;durP2;ratioP2;P2;SDS_P1;SDS_P2;PMS_P1;PMS_P2;Temp;Humidity;BMP_temperature;BMP_pressure;BME280_temperature;BME280_humidity;BME280_pressure;Samples;Min_cycle;Max_cycle;Signal;HPM_P1;HPM_P2
2023/09/01 00:00:57;;;;;;;;;;;;;;;;;;2063590;28;20489;-76
2023/09/01 00:02:18;;;;;;;;;;;;;;;;;;2062805;28;20025;-76
2023/09/01 00:03:38;;;;;;;;;;;;;;;;;;2064922;28;19909;-77
2023/09/01 00:04:59;;;;;;;;;;;;;;;;;;2070162;28;20273;-76
2023/09/01 00:06:20;;;;;;;;;;;;;;;;;;2063965;28;19921;-77
2023/09/01 00:07:40;;;;;;;;;;;;;;;;;;2068614;28;20570;-77
2023/09/01 00:09:01;;;;;;;;;;;;;;;;;;2070470;28;19963;-77
2023/09/01 00:10:22;;;;;;;;;;;;;;;;;;2071685;28;19913;-76
2023/09/01 00:11:43;;;;;;;;;;;;;;;;;;2070309;28;19920;-76
2023/09/01 00:13:03;;;;;;;;;;;;;;;;;;2067089;28;19910;-77
2023/09/01 00:14:24;;;;;;;;;;;;;;;;;;2071215;28;19914;-77
2023/09/01 00:15:45;;;;;;;;;;;;;;;;;;2074712;28;19921;-76
2023/09/01 00:17:05;;;;;;;;;;;;;;;;;;2072659;28;20415;-77
2023/09/01 00:18:26;;;;;;;;;;;;;;;;;;2072550;28;19910;-76
2023/09/01 00:19:47;;;;;;;;;;;;;;;;;;2073354;28;20324;-77
2023/09/01 00:21:08;;;;;;;;;;;;;;;;;;2063973;28;19917;-77
2023/09/01 00:22:29;;;;;;;;;;;;;;;;;;2065419;28;19990;-75
2023/09/01 00:23:49;;;;;;;;;;;;;;;;;;2064500;28;19914;-75
2023/09/01 00:25:10;;;;;;;;;;;;;;;;;;2065301;28;19910;-75
2023/09/01 00:26:31;;;;;;;;;;;;;;;;;;2063162;28;20231;-75
2023/09/01 00:27:51;;;;;;;;;;;;;;;;;;2069846;28;19933;-75
2023/09/01 00:29:12;;;;;;;;;;;;;;;;;;2057496;28;19933;-75
2023/09/01 00:30:33;;;;;;;;;;;;;;;;;;2058607;28;19914;-75
2023/09/01 00:31:53;;;;;;;;;;;;;;;;;;2062532;28;19910;-75
2023/09/01 00:33:14;;;;;;;;;;;;;;;;;;2074225;28;19910;-75
2023/09/01 00:34:35;;;;;;;;;;;;;;;;;;2067352;28;19909;-75
2023/09/01 00:35:55;;;;;;;;;;;;;;;;;;2066096;28;20288;-75
2023/09/01 00:37:16;;;;;;;;;;;;;;;;;;2064496;28;19925;-76
2023/09/01 00:38:37;;;;;;;;;;;;;;;;;;2073506;28;20372;-75
2023/09/01 00:39:57;;;;;;;;;;;;;;;;;;2068003;28;19918;-75
2023/09/01 00:41:18;;;;;;;;;;;;;;;;;;2070072;28;19921;-75
2023/09/01 00:42:39;;;;;;;;;;;;;;;;;;2078551;28;19913;-75
2023/09/01 00:44:00;;;;;;;;;;;;;;;;;;2066609;28;19937;-75
2023/09/01 00:45:20;;;;;;;;;;;;;;;;;;2063160;28;19913;-76
2023/09/01 00:46:46;;;;;;;;;;;;;;;;;;2066296;28;19909;-75
2023/09/01 00:48:07;;;;;;;;;;;;;;;;;;2067181;28;20297;-75
2023/09/01 00:49:28;;;;;;;;;;;;;;;;;;2065921;28;19976;-75
2023/09/01 00:50:49;;;;;;;;;;;;;;;;;;2067931;28;20274;-76
2023/09/01 00:52:10;;;;;;;;;;;;;;;;;;2069241;28;19914;-75
2023/09/01 00:53:30;;;;;;;;;;;;;;;;;;2064169;28;19913;-75
2023/09/01 00:54:51;;;;;;;;;;;;;;;;;;2072666;28;19921;-75
2023/09/01 00:56:12;;;;;;;;;;;;;;;;;;2077032;28;19987;-75
2023/09/01 00:57:32;;;;;;;;;;;;;;;;;;2063431;28;19910;-76
2023/09/01 00:58:53;;;;;;;;;;;;;;;;;;2062057;28;20380;-75
2023/09/01 01:00:14;;;;;;;;;;;;;;;;;;2063777;28;19921;-75
2023/09/01 01:01:35;;;;;;;;;;;;;;;;;;2072714;28;19913;-74
2023/09/01 01:02:55;;;;;;;;;;;;;;;;;;2064481;28;19917;-75
2023/09/01 01:04:17;;;;;;;;;;;;;;;;;;2070234;28;19917;-75
2023/09/01 01:05:38;;;;;;;;;;;;;;;;;;2064602;28;19910;-75
2023/09/01 01:06:59;;;;;;;;;;;;;;;;;;2069143;28;19909;-75
2023/09/01 01:08:20;;;;;;;;;;;;;;;;;;2064122;28;20000;-75
2023/09/01 01:09:41;;;;;;;;;;;;;;;;;;2062086;28;19977;-75
2023/09/01 01:11:02;;;;;;;;;;;;;;;;;;2065408;28;19918;-75
2023/09/01 01:12:22;;;;;;;;;;;;;;;;;;2067838;28;19926;-75
2023/09/01 01:13:43;;;;;;;;;;;;;;;;;;2058353;28;19933;-75
2023/09/01 01:15:09;;;;;;;;;;;;;;;;;;2072049;28;19913;-75
2023/09/01 01:16:29;;;;;;;;;;;;;;;;;;2061044;28;19913;-76
2023/09/01 01:17:50;;;;;;;;;;;;;;;;;;2076728;28;19913;-75
2023/09/01 01:19:11;;;;;;;;;;;;;;;;;;2071627;28;19909;-76
2023/09/01 01:20:31;;;;;;;;;;;;;;;;;;2061968;28;19969;-76
2023/09/01 01:21:52;;;;;;;;;;;;;;;;;;2070501;28;19914;-76
2023/09/01 01:23:14;;;;;;;;;;;;;;;;;;2065692;28;19910;-76
2023/09/01 01:24:35;;;;;;;;;;;;;;;;;;2065113;28;20293;-75
2023/09/01 01:25:56;;;;;;;;;;;;;;;;;;2072516;28;19932;-76
2023/09/01 01:27:16;;;;;;;;;;;;;;;;;;2068448;28;19976;-75
2023/09/01 01:28:37;;;;;;;;;;;;;;;;;;2068521;28;19913;-75
2023/09/01 01:29:58;;;;;;;;;;;;;;;;;;2073603;28;19985;-75
2023/09/01 01:31:18;;;;;;;;;;;;;;;;;;2071356;28;20527;-76
2023/09/01 01:32:39;;;;;;;;;;;;;;;;;;2064355;28;20330;-74
2023/09/01 01:34:00;;;;;;;;;;;;;;;;;;2063051;28;20295;-74
2023/09/01 01:35:20;;;;;;;;;;;;;;;;;;2064173;28;19918;-74
2023/09/01 01:36:41;;;;;;;;;;;;;;;;;;2064891;28;20424;-74
2023/09/01 01:38:02;;;;;;;;;;;;;;;;;;2071290;28;19917;-74
2023/09/01 01:39:23;;;;;;;;;;;;;;;;;;2063955;28;20362;-74
2023/09/01 01:40:43;;;;;;;;;;;;;;;;;;2069564;28;19913;-73
2023/09/01 01:42:04;;;;;;;;;;;;;;;;;;2071514;28;19916;-73
2023/09/01 01:43:25;;;;;;;;;;;;;;;;;;2074144;28;19920;-74
2023/09/01 01:44:45;;;;;;;;;;;;;;;;;;2068851;28;20254;-74
2023/09/01 01:46:06;;;;;;;;;;;;;;;;;;2064468;28;19910;-74
2023/09/01 01:47:27;;;;;;;;;;;;;;;;;;2067210;28;19917;-74
2023/09/01 01:48:47;;;;;;;;;;;;;;;;;;2069821;28;19913;-74
2023/09/01 01:50:08;;;;;;;;;;;;;;;;;;2072985;28;19918;-74
2023/09/01 01:51:29;;;;;;;;;;;;;;;;;;2055706;28;19934;-75
2023/09/01 01:52:50;;;;;;;;;;;;;;;;;;2051812;28;19910;-74
2023/09/01 01:54:11;;;;;;;;;;;;;;;;;;2062481;28;19914;-74
2023/09/01 01:55:32;;;;;;;;;;;;;;;;;;2066793;28;19909;-74
2023/09/01 01:56:53;;;;;;;;;;;;;;;;;;2065332;28;19933;-74
2023/09/01 01:58:14;;;;;;;;;;;;;;;;;;2065553;28;19917;-73
2023/09/01 01:59:34;;;;;;;;;;;;;;;;;;2065445;28;21107;-74
2023/09/01 02:00:55;;;;;;;;;;;;;;;;;;2069346;28;19917;-73
2023/09/01 02:02:16;;;;;;;;;;;;;;;;;;2063958;28;19949;-73
2023/09/01 02:03:37;;;;;;;;;;;;;;;;;;2070330;28;19921;-74
2023/09/01 02:04:57;;;;;;;;;;;;;;;;;;2072933;28;19909;-74
2023/09/01 02:06:18;;;;;;;;;;;;;;;;;;2057180;28;19926;-75
2023/09/01 02:07:39;;;;;;;;;;;;;;;;;;2070890;28;20331;-74
2023/09/01 02:08:59;;;;;;;;;;;;;;;;;;2073871;28;19913;-74
2023/09/01 02:10:20;;;;;;;;;;;;;;;;;;2066097;28;19918;-74
2023/09/01 02:11:41;;;;;;;;;;;;;;;;;;2062870;28;20297;-74
2023/09/01 02:13:03;;;;;;;;;;;;;;;;;;2072285;28;19920;-74
2023/09/01 02:14:24;;;;;;;;;;;;;;;;;;2074255;28;19968;-74
2023/09/01 02:15:45;;;;;;;;;;;;;;;;;;2076090;28;19922;-74
2023/09/01 02:17:06;;;;;;;;;;;;;;;;;;2065897;28;19971;-74
2023/09/01 02:18:27;;;;;;;;;;;;;;;;;;2070068;28;20360;-74
2023/09/01 02:19:48;;;;;;;;;;;;;;;;;;2065237;28;19910;-74
2023/09/01 02:21:08;;;;;;;;;;;;;;;;;;2070065;28;19925;-73
2023/09/01 02:22:29;;;;;;;;;;;;;;;;;;2068943;28;19916;-74
2023/09/01 02:23:50;;;;;;;;;;;;;;;;;;2073816;28;19964;-73
2023/09/01 02:25:12;;;;;;;;;;;;;;;;;;2067143;28;19960;-74
2023/09/01 02:26:32;;;;;;;;;;;;;;;;;;2069202;28;19910;-74
2023/09/01 02:27:53;;;;;;;;;;;;;;;;;;2074802;28;19917;-73
2023/09/01 02:29:14;;;;;;;;;;;;;;;;;;2082387;28;19916;-74
2023/09/01 02:30:34;;;;;;;;;;;;;;;;;;2066270;28;20357;-74
2023/09/01 02:31:55;;;;;;;;;;;;;;;;;;2065487;28;19921;-74
2023/09/01 02:33:18;;;;;;;;;;;;;;;;;;2074145;28;19909;-74
2023/09/01 02:34:38;;;;;;;;;;;;;;;;;;2059972;28;19911;-74
2023/09/01 02:35:59;;;;;;;;;;;;;;;;;;2064382;28;20373;-74
2023/09/01 02:37:20;;;;;;;;;;;;;;;;;;2057745;28;19910;-74
2023/09/01 02:38:40;;;;;;;;;;;;;;;;;;2075345;28;19913;-74
2023/09/01 02:40:01;;;;;;;;;;;;;;;;;;2075043;28;20391;-74
2023/09/01 02:41:22;;;;;;;;;;;;;;;;;;2063900;28;19953;-74
2023/09/01 02:42:43;;;;;;;;;;;;;;;;;;2064912;28;19910;-77
2023/09/01 02:44:04;;;;;;;;;;;;;;;;;;2079187;28;20284;-76
2023/09/01 02:45:24;;;;;;;;;;;;;;;;;;2073668;28;19917;-76
2023/09/01 02:46:45;;;;;;;;;;;;;;;;;;2070778;28;19910;-75
2023/09/01 02:48:06;;;;;;;;;;;;;;;;;;2075319;28;19914;-75
2023/09/01 02:49:26;;;;;;;;;;;;;;;;;;2064888;28;19937;-76
2023/09/01 02:50:47;;;;;;;;;;;;;;;;;;2070881;28;20292;-76
2023/09/01 02:52:08;;;;;;;;;;;;;;;;;;2073574;28;19922;-76
2023/09/01 02:53:28;;;;;;;;;;;;;;;;;;2073975;28;19910;-76
2023/09/01 02:54:49;;;;;;;;;;;;;;;;;;2063843;28;19937;-75
2023/09/01 02:56:10;;;;;;;;;;;;;;;;;;2063995;28;19914;-75
2023/09/01 02:57:31;;;;;;;;;;;;;;;;;;2071976;28;19921;-75
2023/09/01 02:58:51;;;;;;;;;;;;;;;;;;2073216;28;19909;-76
2023/09/01 03:00:18;;;;;;;;;;;;;;;;;;2073766;28;20381;-76
2023/09/01 03:01:38;;;;;;;;;;;;;;;;;;2067970;28;19925;-75
2023/09/01 03:02:59;;;;;;;;;;;;;;;;;;2072593;28;19909;-75
2023/09/01 03:04:20;;;;;;;;;;;;;;;;;;2063437;28;19909;-75
2023/09/01 03:05:40;;;;;;;;;;;;;;;;;;2069185;28;19917;-75
2023/09/01 03:07:01;;;;;;;;;;;;;;;;;;2060505;28;19925;-75
2023/09/01 03:08:22;;;;;;;;;;;;;;;;;;2071043;28;19909;-76
2023/09/01 03:09:43;;;;;;;;;;;;;;;;;;2072164;28;19913;-75
2023/09/01 03:11:03;;;;;;;;;;;;;;;;;;2073199;28;19909;-75
2023/09/01 03:12:24;;;;;;;;;;;;;;;;;;2072754;28;19906;-75
2023/09/01 03:13:45;;;;;;;;;;;;;;;;;;2064239;28;19925;-75
2023/09/01 03:15:05;;;;;;;;;;;;;;;;;;2069924;28;19918;-75
2023/09/01 03:16:26;;;;;;;;;;;;;;;;;;2074802;28;19913;-75
2023/09/01 03:17:47;;;;;;;;;;;;;;;;;;2075924;28;19922;-75
2023/09/01 03:19:07;;;;;;;;;;;;;;;;;;2075963;28;19914;-75
2023/09/01 03:20:28;;;;;;;;;;;;;;;;;;2066911;28;20222;-75
2023/09/01 03:21:49;;;;;;;;;;;;;;;;;;2071615;28;19925;-75
2023/09/01 03:23:09;;;;;;;;;;;;;;;;;;2080083;28;20360;-75
2023/09/01 03:24:30;;;;;;;;;;;;;;;;;;2077499;28;19909;-75
2023/09/01 03:25:51;;;;;;;;;;;;;;;;;;2073924;28;20277;-75
2023/09/01 03:27:14;;;;;;;;;;;;;;;;;;2064719;28;19909;-76
2023/09/01 03:28:34;;;;;;;;;;;;;;;;;;2075613;28;20273;-75
2023/09/01 03:29:55;;;;;;;;;;;;;;;;;;2071105;28;20262;-75
2023/09/01 03:31:16;;;;;;;;;;;;;;;;;;2063588;28;19913;-75
2023/09/01 03:32:37;;;;;;;;;;;;;;;;;;2071305;28;19913;-75
2023/09/01 03:33:59;;;;;;;;;;;;;;;;;;2065565;28;19921;-75
2023/09/01 03:35:20;;;;;;;;;;;;;;;;;;2071581;28;19940;-75
2023/09/01 03:36:40;;;;;;;;;;;;;;;;;;2073710;28;19913;-75
2023/09/01 03:38:01;;;;;;;;;;;;;;;;;;2078990;28;19917;-75
2023/09/01 03:39:22;;;;;;;;;;;;;;;;;;2067784;28;20255;-75
2023/09/01 03:40:42;;;;;;;;;;;;;;;;;;2073381;28;20369;-75
2023/09/01 03:42:03;;;;;;;;;;;;;;;;;;2072108;28;19917;-75
2023/09/01 03:43:24;;;;;;;;;;;;;;;;;;2073126;28;19971;-74
2023/09/01 03:44:45;;;;;;;;;;;;;;;;;;2067511;28;19909;-75
2023/09/01 03:46:05;;;;;;;;;;;;;;;;;;2065890;28;19917;-75
2023/09/01 03:47:26;;;;;;;;;;;;;;;;;;2068356;28;19917;-75
2023/09/01 03:48:47;;;;;;;;;;;;;;;;;;2070598;28;21338;-75
2023/09/01 03:50:08;;;;;;;;;;;;;;;;;;2066251;28;20010;-75
2023/09/01 03:51:28;;;;;;;;;;;;;;;;;;2067348;28;19914;-75
2023/09/01 03:52:49;;;;;;;;;;;;;;;;;;2070631;28;20238;-75
2023/09/01 03:54:10;;;;;;;;;;;;;;;;;;2064083;28;19933;-75
2023/09/01 03:55:30;;;;;;;;;;;;;;;;;;2066831;28;19909;-75
2023/09/01 03:56:51;;;;;;;;;;;;;;;;;;2070197;28;19909;-75
2023/09/01 03:58:12;;;;;;;;;;;;;;;;;;2073200;28;19913;-74
2023/09/01 03:59:32;;;;;;;;;;;;;;;;;;2073448;28;19914;-75
2023/09/01 04:00:53;;;;;;;;;;;;;;;;;;2073239;28;19909;-75
2023/09/01 04:02:15;;;;;;;;;;;;;;;;;;2072684;28;19921;-75
2023/09/01 04:03:35;;;;;;;;;;;;;;;;;;2065576;28;19910;-75
2023/09/01 04:04:56;;;;;;;;;;;;;;;;;;2076236;28;19909;-75
2023/09/01 04:06:17;;;;;;;;;;;;;;;;;;2065683;28;19921;-74
2023/09/01 04:07:38;;;;;;;;;;;;;;;;;;2072884;28;20296;-75
2023/09/01 04:08:58;;;;;;;;;;;;;;;;;;2066122;28;20289;-75
2023/09/01 04:10:19;;;;;;;;;;;;;;;;;;2073114;28;19910;-75
2023/09/01 04:11:40;;;;;;;;;;;;;;;;;;2074306;28;19914;-75
2023/09/01 04:13:01;;;;;;;;;;;;;;;;;;2075191;28;19913;-75
2023/09/01 04:14:21;;;;;;;;;;;;;;;;;;2079933;28;19920;-75
2023/09/01 04:15:42;;;;;;;;;;;;;;;;;;2078959;28;19916;-76
2023/09/01 04:17:04;;;;;;;;;;;;;;;;;;2072262;28;19909;-76
2023/09/01 04:18:25;;;;;;;;;;;;;;;;;;2062518;28;19910;-76
2023/09/01 04:19:46;;;;;;;;;;;;;;;;;;2070311;28;19980;-76
2023/09/01 04:21:06;;;;;;;;;;;;;;;;;;2065786;28;19913;-75
2023/09/01 04:22:27;;;;;;;;;;;;;;;;;;2067734;28;19921;-75
2023/09/01 04:23:48;;;;;;;;;;;;;;;;;;2071391;28;19960;-75
2023/09/01 04:25:09;;;;;;;;;;;;;;;;;;2064547;28;20285;-75
2023/09/01 04:26:31;;;;;;;;;;;;;;;;;;2065942;28;20365;-76
2023/09/01 04:27:51;;;;;;;;;;;;;;;;;;2065057;28;19914;-75
2023/09/01 04:29:13;;;;;;;;;;;;;;;;;;2066042;28;20405;-75
2023/09/01 04:30:36;;;;;;;;;;;;;;;;;;2070723;28;19936;-75
2023/09/01 04:31:57;;;;;;;;;;;;;;;;;;2070657;28;20221;-75
2023/09/01 04:33:17;;;;;;;;;;;;;;;;;;2069420;28;20178;-74
2023/09/01 04:34:38;;;;;;;;;;;;;;;;;;2064822;28;19933;-74
2023/09/01 04:35:59;;;;;;;;;;;;;;;;;;2070012;28;19922;-74
2023/09/01 04:37:21;;;;;;;;;;;;;;;;;;2071027;28;20332;-74
2023/09/01 04:38:41;;;;;;;;;;;;;;;;;;2071978;28;20300;-74
2023/09/01 04:40:06;;;;;;;;;;;;;;;;;;2065669;28;19914;-75
2023/09/01 04:41:26;;;;;;;;;;;;;;;;;;2067994;28;19917;-74
2023/09/01 04:42:47;;;;;;;;;;;;;;;;;;2071289;28;19916;-75
2023/09/01 04:44:08;;;;;;;;;;;;;;;;;;2073786;28;20255;-75
2023/09/01 04:45:28;;;;;;;;;;;;;;;;;;2065839;28;19913;-75
2023/09/01 04:46:49;;;;;;;;;;;;;;;;;;2072005;28;20388;-75
2023/09/01 04:48:10;;;;;;;;;;;;;;;;;;2071416;28;19929;-75
2023/09/01 04:49:30;;;;;;;;;;;;;;;;;;2070298;28;19916;-75
2023/09/01 04:50:51;;;;;;;;;;;;;;;;;;2068507;28;20222;-75
2023/09/01 04:52:12;;;;;;;;;;;;;;;;;;2072882;28;20357;-75
2023/09/01 04:53:32;;;;;;;;;;;;;;;;;;2077079;28;19909;-76
2023/09/01 04:54:53;;;;;;;;;;;;;;;;;;2066188;28;19918;-75
2023/09/01 04:56:14;;;;;;;;;;;;;;;;;;2066751;28;19910;-77
2023/09/01 04:57:34;;;;;;;;;;;;;;;;;;2076765;28;19913;-75
2023/09/01 04:58:55;;;;;;;;;;;;;;;;;;2072724;28;19917;-76
2023/09/01 05:00:16;;;;;;;;;;;;;;;;;;2071808;28;19944;-75
2023/09/01 05:01:37;;;;;;;;;;;;;;;;;;2071482;28;19951;-76
2023/09/01 05:02:57;;;;;;;;;;;;;;;;;;2073108;28;19913;-75
2023/09/01 05:04:18;;;;;;;;;;;;;;;;;;2072561;28;19917;-75
2023/09/01 05:05:39;;;;;;;;;;;;;;;;;;2072857;28;19914;-75
2023/09/01 05:06:59;;;;;;;;;;;;;;;;;;2065849;28;20387;-75
2023/09/01 05:08:20;;;;;;;;;;;;;;;;;;2068659;28;19909;-76
2023/09/01 05:09:41;;;;;;;;;;;;;;;;;;2071279;28;20388;-75
2023/09/01 05:11:02;;;;;;;;;;;;;;;;;;2072267;28;19925;-75
2023/09/01 05:12:22;;;;;;;;;;;;;;;;;;2072823;28;19917;-76
2023/09/01 05:13:43;;;;;;;;;;;;;;;;;;2060173;28;19984;-76
2023/09/01 05:15:04;;;;;;;;;;;;;;;;;;2059969;28;20013;-75
2023/09/01 05:16:24;;;;;;;;;;;;;;;;;;2066726;28;20301;-75
2023/09/01 05:17:45;;;;;;;;;;;;;;;;;;2072295;28;19920;-76
2023/09/01 05:19:06;;;;;;;;;;;;;;;;;;2071309;28;19936;-76
2023/09/01 05:20:26;;;;;;;;;;;;;;;;;;2071118;28;19992;-76
2023/09/01 05:21:48;;;;;;;;;;;;;;;;;;2069998;28;19922;-76
2023/09/01 05:23:08;;;;;;;;;;;;;;;;;;2074175;28;19913;-76
2023/09/01 05:24:29;;;;;;;;;;;;;;;;;;2068032;28;19942;-76
2023/09/01 05:25:50;;;;;;;;;;;;;;;;;;2062154;28;19921;-74
2023/09/01 05:27:10;;;;;;;;;;;;;;;;;;2071640;28;19910;-74
2023/09/01 05:28:31;;;;;;;;;;;;;;;;;;2073831;28;19917;-72
2023/09/01 05:29:52;;;;;;;;;;;;;;;;;;2070706;28;19968;-72
2023/09/01 05:31:13;;;;;;;;;;;;;;;;;;2071746;28;20280;-72
2023/09/01 05:32:33;;;;;;;;;;;;;;;;;;2067734;28;19921;-71
2023/09/01 05:33:54;;;;;;;;;;;;;;;;;;2078089;28;20352;-73
2023/09/01 05:35:15;;;;;;;;;;;;;;;;;;2075627;28;19921;-72
2023/09/01 05:36:36;;;;;;;;;;;;;;;;;;2072253;28;19909;-74
2023/09/01 05:37:56;;;;;;;;;;;;;;;;;;2072869;28;19916;-73
2023/09/01 05:39:17;;;;;;;;;;;;;;;;;;2064222;28;20013;-73
2023/09/01 05:40:38;;;;;;;;;;;;;;;;;;2071230;28;19924;-73
2023/09/01 05:41:58;;;;;;;;;;;;;;;;;;2071398;28;20308;-73
2023/09/01 05:43:19;;;;;;;;;;;;;;;;;;2063318;28;20349;-73
2023/09/01 05:44:40;;;;;;;;;;;;;;;;;;2070101;28;19917;-73
2023/09/01 05:46:00;;;;;;;;;;;;;;;;;;2063763;28;19910;-73
2023/09/01 05:47:21;;;;;;;;;;;;;;;;;;2066720;28;20495;-73
2023/09/01 05:48:42;;;;;;;;;;;;;;;;;;2078865;28;19909;-73
2023/09/01 05:50:04;;;;;;;;;;;;;;;;;;2072694;28;19910;-73
2023/09/01 05:51:24;;;;;;;;;;;;;;;;;;2067121;28;19917;-74
2023/09/01 05:52:45;;;;;;;;;;;;;;;;;;2075722;28;19953;-73
2023/09/01 05:54:06;;;;;;;;;;;;;;;;;;2070334;28;19909;-74
2023/09/01 05:55:26;;;;;;;;;;;;;;;;;;2065318;28;19910;-73
2023/09/01 05:56:47;;;;;;;;;;;;;;;;;;2072276;28;19913;-74
2023/09/01 05:58:08;;;;;;;;;;;;;;;;;;2072209;28;19920;-73
2023/09/01 05:59:29;;;;;;;;;;;;;;;;;;2072235;28;20246;-73
2023/09/01 06:00:49;;;;;;;;;;;;;;;;;;2072308;28;19920;-74
2023/09/01 06:02:10;;;;;;;;;;;;;;;;;;2068344;28;19937;-74
2023/09/01 06:03:31;;;;;;;;;;;;;;;;;;2065696;28;19970;-73
2023/09/01 06:04:52;;;;;;;;;;;;;;;;;;2076870;28;19932;-75
2023/09/01 06:06:12;;;;;;;;;;;;;;;;;;2057454;28;19914;-74
2023/09/01 06:07:33;;;;;;;;;;;;;;;;;;2067710;28;19932;-74
2023/09/01 06:08:54;;;;;;;;;;;;;;;;;;2072913;28;19910;-74
2023/09/01 06:10:17;;;;;;;;;;;;;;;;;;2071691;28;20311;-74
2023/09/01 06:11:38;;;;;;;;;;;;;;;;;;2073318;28;19971;-75
2023/09/01 06:12:58;;;;;;;;;;;;;;;;;;2072847;28;20284;-74
2023/09/01 06:14:19;;;;;;;;;;;;;;;;;;2070224;28;19920;-72
2023/09/01 06:15:40;;;;;;;;;;;;;;;;;;2079639;28;19978;-72
2023/09/01 06:17:00;;;;;;;;;;;;;;;;;;2073539;28;19920;-76
2023/09/01 06:18:21;;;;;;;;;;;;;;;;;;2074470;28;19932;-77
2023/09/01 06:19:42;;;;;;;;;;;;;;;;;;2062347;28;19917;-74
2023/09/01 06:21:03;;;;;;;;;;;;;;;;;;2068634;28;19921;-74
2023/09/01 06:22:24;;;;;;;;;;;;;;;;;;2070304;28;19917;-77
2023/09/01 06:23:44;;;;;;;;;;;;;;;;;;2076439;28;19916;-74
2023/09/01 06:25:05;;;;;;;;;;;;;;;;;;2068398;28;19913;-74
2023/09/01 06:26:26;;;;;;;;;;;;;;;;;;2071425;28;19910;-74
2023/09/01 06:27:46;;;;;;;;;;;;;;;;;;2071707;28;19909;-74
2023/09/01 06:29:07;;;;;;;;;;;;;;;;;;2069210;28;19909;-73
2023/09/01 06:30:28;;;;;;;;;;;;;;;;;;2061566;28;19953;-74
2023/09/01 06:31:49;;;;;;;;;;;;;;;;;;2069179;28;19914;-74
2023/09/01 06:33:09;;;;;;;;;;;;;;;;;;2070973;28;19930;-74
2023/09/01 06:34:30;;;;;;;;;;;;;;;;;;2072202;28;20651;-74
2023/09/01 06:35:51;;;;;;;;;;;;;;;;;;2071146;28;19921;-73
2023/09/01 06:37:11;;;;;;;;;;;;;;;;;;2057860;28;19910;-74
2023/09/01 06:38:32;;;;;;;;;;;;;;;;;;2068059;28;19917;-74
2023/09/01 06:39:53;;;;;;;;;;;;;;;;;;2069758;28;20389;-75
2023/09/01 06:41:14;;;;;;;;;;;;;;;;;;2073287;28;19910;-75
2023/09/01 06:42:34;;;;;;;;;;;;;;;;;;2064187;28;19921;-75
2023/09/01 06:43:55;;;;;;;;;;;;;;;;;;2072132;28;19917;-75
2023/09/01 06:45:16;;;;;;;;;;;;;;;;;;2072752;28;19910;-76
2023/09/01 06:46:36;;;;;;;;;;;;;;;;;;2069779;28;19913;-77
2023/09/01 06:47:57;;;;;;;;;;;;;;;;;;2061160;28;19921;-75
2023/09/01 06:49:18;;;;;;;;;;;;;;;;;;2069964;28;19932;-75
2023/09/01 06:50:39;;;;;;;;;;;;;;;;;;2069510;28;20324;-75
2023/09/01 06:52:00;;;;;;;;;;;;;;;;;;2066635;28;20750;-75
2023/09/01 06:53:21;;;;;;;;;;;;;;;;;;2068754;28;19917;-73
2023/09/01 06:54:41;;;;;;;;;;;;;;;;;;2075883;28;20385;-73
2023/09/01 06:56:02;;;;;;;;;;;;;;;;;;2071965;28;19917;-75
2023/09/01 06:57:23;;;;;;;;;;;;;;;;;;2069333;28;19940;-74
2023/09/01 06:58:43;;;;;;;;;;;;;;;;;;2073826;28;20353;-74
2023/09/01 07:00:04;;;;;;;;;;;;;;;;;;2072729;28;19964;-75
2023/09/01 07:01:27;;;;;;;;;;;;;;;;;;2063882;28;19932;-75
2023/09/01 07:02:48;;;;;;;;;;;;;;;;;;2067571;28;19992;-77
2023/09/01 07:04:09;;;;;;;;;;;;;;;;;;2071463;28;19917;-73
2023/09/01 07:05:30;;;;;;;;;;;;;;;;;;2069993;28;19921;-76
2023/09/01 07:06:50;;;;;;;;;;;;;;;;;;2071276;28;19941;-75
2023/09/01 07:08:14;;;;;;;;;;;;;;;;;;2073050;28;19913;-74
2023/09/01 07:09:34;;;;;;;;;;;;;;;;;;2071360;28;19960;-74
2023/09/01 07:10:55;;;;;;;;;;;;;;;;;;2067748;28;20315;-75
2023/09/01 07:12:16;;;;;;;;;;;;;;;;;;2071131;28;19920;-75
2023/09/01 07:13:37;;;;;;;;;;;;;;;;;;2064446;28;19910;-74
2023/09/01 07:14:57;;;;;;;;;;;;;;;;;;2068627;28;19921;-74
2023/09/01 07:16:18;;;;;;;;;;;;;;;;;;2062130;28;19917;-75
2023/09/01 07:17:39;;;;;;;;;;;;;;;;;;2068706;28;19918;-75
2023/09/01 07:18:59;;;;;;;;;;;;;;;;;;2070203;28;19940;-75
2023/09/01 07:20:20;;;;;;;;;;;;;;;;;;2071064;28;19913;-74
2023/09/01 07:21:41;;;;;;;;;;;;;;;;;;2070511;28;20259;-74
2023/09/01 07:23:02;;;;;;;;;;;;;;;;;;2069045;28;19921;-75
2023/09/01 07:24:23;;;;;;;;;;;;;;;;;;2072730;28;19918;-79
2023/09/01 07:25:44;;;;;;;;;;;;;;;;;;2071026;28;20258;-79
2023/09/01 07:27:06;;;;;;;;;;;;;;;;;;2061438;28;19925;-77
2023/09/01 07:28:27;;;;;;;;;;;;;;;;;;2060950;28;20354;-77
2023/09/01 07:29:48;;;;;;;;;;;;;;;;;;2069422;28;19948;-76
2023/09/01 07:31:09;;;;;;;;;;;;;;;;;;2068951;28;19948;-77
2023/09/01 07:32:30;;;;;;;;;;;;;;;;;;2072578;28;20353;-77
2023/09/01 07:33:50;;;;;;;;;;;;;;;;;;2071174;28;19929;-77
2023/09/01 07:35:11;;;;;;;;;;;;;;;;;;2069495;28;19913;-77
2023/09/01 07:36:32;;;;;;;;;;;;;;;;;;2063612;28;19952;-77
2023/09/01 07:37:53;;;;;;;;;;;;;;;;;;2062969;28;19918;-77
2023/09/01 07:39:13;;;;;;;;;;;;;;;;;;2062466;28;20378;-77
2023/09/01 07:40:34;;;;;;;;;;;;;;;;;;2067306;28;19928;-77
2023/09/01 07:41:55;;;;;;;;;;;;;;;;;;2069946;28;19914;-77
2023/09/01 07:43:17;;;;;;;;;;;;;;;;;;2069745;28;19987;-78
2023/09/01 07:44:38;;;;;;;;;;;;;;;;;;2070637;28;19921;-77
2023/09/01 07:45:59;;;;;;;;;;;;;;;;;;2062796;28;19922;-76
2023/09/01 07:47:19;;;;;;;;;;;;;;;;;;2068127;28;19997;-78
2023/09/01 07:48:40;;;;;;;;;;;;;;;;;;2069771;28;19918;-77
2023/09/01 07:50:01;;;;;;;;;;;;;;;;;;2061110;28;21191;-78
2023/09/01 07:51:21;;;;;;;;;;;;;;;;;;2070086;28;19914;-79
2023/09/01 07:52:42;;;;;;;;;;;;;;;;;;2061795;28;19961;-79
2023/09/01 07:54:03;;;;;;;;;;;;;;;;;;2065921;28;19918;-79
2023/09/01 07:55:23;;;;;;;;;;;;;;;;;;2066845;28;19913;-77
2023/09/01 07:56:44;;;;;;;;;;;;;;;;;;2060711;28;19954;-76
2023/09/01 07:58:05;;;;;;;;;;;;;;;;;;2068100;28;19917;-75
2023/09/01 07:59:26;;;;;;;;;;;;;;;;;;2069311;28;19917;-75
2023/09/01 08:00:46;;;;;;;;;;;;;;;;;;2062723;28;19914;-75
2023/09/01 08:02:07;;;;;;;;;;;;;;;;;;2065859;28;19976;-75
2023/09/01 08:03:28;;;;;;;;;;;;;;;;;;2068779;28;19929;-75
2023/09/01 08:04:48;;;;;;;;;;;;;;;;;;2065769;28;19925;-76
2023/09/01 08:06:09;;;;;;;;;;;;;;;;;;2065321;28;19933;-76
2023/09/01 08:07:30;;;;;;;;;;;;;;;;;;2057211;28;19910;-76
2023/09/01 08:08:51;;;;;;;;;;;;;;;;;;2057629;28;19914;-77
2023/09/01 08:10:11;;;;;;;;;;;;;;;;;;2062664;28;20259;-76
2023/09/01 08:11:32;;;;;;;;;;;;;;;;;;2057301;28;19911;-77
2023/09/01 08:12:53;;;;;;;;;;;;;;;;;;2069932;28;20347;-78
2023/09/01 08:14:13;;;;;;;;;;;;;;;;;;2063108;28;19953;-77
2023/09/01 08:15:34;;;;;;;;;;;;;;;;;;2070626;28;19910;-73
2023/09/01 08:16:55;;;;;;;;;;;;;;;;;;2072671;28;19976;-75
2023/09/01 08:18:16;;;;;;;;;;;;;;;;;;2064666;28;19909;-75
2023/09/01 08:19:40;;;;;;;;;;;;;;;;;;2071139;28;19918;-75
2023/09/01 08:21:00;;;;;;;;;;;;;;;;;;2068830;28;19926;-74
2023/09/01 08:22:21;;;;;;;;;;;;;;;;;;2073122;28;20328;-75
2023/09/01 08:23:42;;;;;;;;;;;;;;;;;;2073705;28;20262;-75
2023/09/01 08:25:03;;;;;;;;;;;;;;;;;;2064681;28;19910;-75
2023/09/01 08:26:24;;;;;;;;;;;;;;;;;;2067060;28;19909;-75
2023/09/01 08:27:44;;;;;;;;;;;;;;;;;;2064609;28;19913;-76
2023/09/01 08:29:05;;;;;;;;;;;;;;;;;;2063083;28;19917;-74
2023/09/01 08:30:26;;;;;;;;;;;;;;;;;;2073213;28;19909;-75
2023/09/01 08:31:47;;;;;;;;;;;;;;;;;;2070554;28;19944;-75
2023/09/01 08:33:08;;;;;;;;;;;;;;;;;;2073055;28;19921;-75
2023/09/01 08:34:29;;;;;;;;;;;;;;;;;;2070557;28;19917;-76
2023/09/01 08:35:50;;;;;;;;;;;;;;;;;;2068796;28;20452;-77
2023/09/01 08:37:11;;;;;;;;;;;;;;;;;;2070402;28;19913;-76
2023/09/01 08:38:35;;;;;;;;;;;;;;;;;;2065298;28;19921;-76
2023/09/01 08:39:56;;;;;;;;;;;;;;;;;;2064955;28;20361;-76
2023/09/01 08:41:16;;;;;;;;;;;;;;;;;;2066708;28;19910;-77
2023/09/01 08:42:37;;;;;;;;;;;;;;;;;;2063851;28;19917;-76
2023/09/01 08:43:58;;;;;;;;;;;;;;;;;;2069965;28;19909;-76
2023/09/01 08:45:19;;;;;;;;;;;;;;;;;;2071948;28;19939;-78
2023/09/01 08:46:39;;;;;;;;;;;;;;;;;;2072193;28;19917;-77
2023/09/01 08:48:03;;;;;;;;;;;;;;;;;;2070103;28;19909;-76
2023/09/01 08:49:25;;;;;;;;;;;;;;;;;;2061267;28;19921;-77
2023/09/01 08:50:45;;;;;;;;;;;;;;;;;;2070386;28;19920;-75
2023/09/01 08:52:06;;;;;;;;;;;;;;;;;;2076397;28;20284;-76
2023/09/01 08:53:27;;;;;;;;;;;;;;;;;;2068830;28;19917;-76
2023/09/01 08:54:48;;;;;;;;;;;;;;;;;;2058480;28;20389;-76
2023/09/01 08:56:08;;;;;;;;;;;;;;;;;;2065385;28;20405;-76
2023/09/01 08:57:29;;;;;;;;;;;;;;;;;;2067245;28;20383;-76
2023/09/01 08:58:50;;;;;;;;;;;;;;;;;;2064044;28;19909;-76
2023/09/01 09:00:10;;;;;;;;;;;;;;;;;;2070356;28;19998;-76
2023/09/01 09:01:31;;;;;;;;;;;;;;;;;;2058254;28;20590;-76
2023/09/01 09:02:52;;;;;;;;;;;;;;;;;;2068626;28;19937;-76
2023/09/01 09:04:13;;;;;;;;;;;;;;;;;;2069037;28;20369;-76
2023/09/01 09:05:33;;;;;;;;;;;;;;;;;;2070800;28;20357;-76
2023/09/01 09:06:54;;;;;;;;;;;;;;;;;;2069850;28;19913;-75
2023/09/01 09:08:15;;;;;;;;;;;;;;;;;;2067415;28;19913;-76
2023/09/01 09:09:36;;;;;;;;;;;;;;;;;;2072024;28;19916;-77
2023/09/01 09:10:56;;;;;;;;;;;;;;;;;;2067998;28;20108;-77
2023/09/01 09:12:18;;;;;;;;;;;;;;;;;;2067581;28;20368;-77